Time;durP1;ratioP1;P1;durP2;ratioP2;P2;SDS_P1;SDS_P2;PMS_P1;PMS_P2;Temp;Humidity;BMP_temperature;BMP_pressure;BME280_temperature;BME280_humidity;BME280_pressure;Samples;Min_cycle;Max_cycle;Signal;HPM_P1;HPM_P2
2022/12/06 00:01:45;;;;;;;17.45;13.23;;;7.20;99.90;;;;;;5094080;28;20323;-75
2022/12/06 00:04:15;;;;;;;14.77;12.75;;;7.20;99.90;;;;;;5093477;28;20219;-76
2022/12/06 00:06:46;;;;;;;15.20;13.00;;;7.10;99.90;;;;;;5094549;28;20222;-76
2022/12/06 00:09:17;;;;;;;14.75;12.63;;;7.10;99.90;;;;;;5109123;28;20223;-75
2022/12/06 00:11:45;;;;;;;13.82;11.88;;;7.10;99.90;;;;;;5112782;28;20245;-76
2022/12/06 00:14:15;;;;;;;15.00;12.27;;;7.20;99.90;;;;;;5114233;28;20226;-78
2022/12/06 00:16:42;;;;;;;15.35;12.10;;;7.20;99.90;;;;;;5100866;28;20287;-75
2022/12/06 00:19:11;;;;;;;16.08;12.73;;;7.10;99.90;;;;;;5095205;28;20231;-76
2022/12/06 00:21:38;;;;;;;12.02;10.13;;;7.10;99.90;;;;;;5111567;28;20658;-78
2022/12/06 00:24:08;;;;;;;18.77;14.18;;;7.20;99.90;;;;;;5111629;28;20215;-75
2022/12/06 00:26:42;;;;;;;15.88;12.90;;;7.10;99.90;;;;;;5109493;28;20222;-77
2022/12/06 00:29:15;;;;;;;16.50;12.60;;;7.10;99.90;;;;;;5111870;28;20244;-77
2022/12/06 00:31:42;;;;;;;13.60;11.48;;;7.10;99.90;;;;;;5112512;28;20218;-75
2022/12/06 00:34:09;;;;;;;16.45;11.85;;;7.10;99.90;;;;;;5107449;28;20243;-76
2022/12/06 00:36:39;;;;;;;13.82;11.15;;;7.00;99.90;;;;;;5109020;28;20238;-75
2022/12/06 00:39:09;;;;;;;15.90;12.68;;;7.00;99.90;;;;;;5110240;28;20227;-75
2022/12/06 00:41:36;;;;;;;16.02;11.95;;;6.90;99.90;;;;;;5098987;28;20219;-75
2022/12/06 00:44:04;;;;;;;14.32;12.48;;;6.90;99.90;;;;;;5110019;28;20264;-77
2022/12/06 00:46:33;;;;;;;15.98;12.05;;;7.00;99.90;;;;;;5113615;28;20641;-77
2022/12/06 00:49:02;;;;;;;15.68;11.38;;;6.90;99.90;;;;;;5099449;28;20592;-75
2022/12/06 00:51:31;;;;;;;14.38;11.10;;;7.00;99.90;;;;;;5103405;28;20557;-77
2022/12/06 00:53:59;;;;;;;12.15;10.23;;;7.00;99.90;;;;;;5099134;28;20314;-77
2022/12/06 00:56:26;;;;;;;13.82;10.50;;;7.00;99.90;;;;;;5112571;28;20230;-76
2022/12/06 00:58:53;;;;;;;14.40;11.13;;;7.00;99.90;;;;;;5099930;28;20222;-75
2022/12/06 01:01:24;;;;;;;12.45;11.10;;;7.00;99.90;;;;;;5101367;28;20227;-77
2022/12/06 01:03:56;;;;;;;14.18;12.65;;;7.00;99.90;;;;;;5104237;28;20234;-77
2022/12/06 01:06:26;;;;;;;15.25;13.40;;;7.00;99.90;;;;;;5110046;28;20219;-78
2022/12/06 01:08:54;;;;;;;13.32;11.98;;;6.90;99.90;;;;;;5113759;28;20242;-75
2022/12/06 01:11:22;;;;;;;17.35;14.40;;;6.90;99.90;;;;;;5102871;28;20226;-78
2022/12/06 01:13:49;;;;;;;15.00;13.30;;;6.90;99.90;;;;;;5107133;28;20263;-75
2022/12/06 01:16:20;;;;;;;15.18;13.25;;;6.90;99.90;;;;;;5099312;28;20222;-75
2022/12/06 01:18:51;;;;;;;15.85;12.55;;;6.90;99.90;;;;;;5101664;28;20248;-74
2022/12/06 01:21:21;;;;;;;15.85;13.50;;;6.90;99.90;;;;;;5102471;28;20669;-77
2022/12/06 01:23:49;;;;;;;15.68;12.32;;;6.80;99.90;;;;;;5118722;28;20218;-77
2022/12/06 01:26:18;;;;;;;15.43;13.80;;;6.90;99.90;;;;;;5109784;28;20227;-76
2022/12/06 01:28:46;;;;;;;14.07;12.65;;;6.90;99.90;;;;;;5121102;28;20223;-77
2022/12/06 01:31:14;;;;;;;16.00;13.70;;;6.90;99.90;;;;;;5124822;28;20230;-77
2022/12/06 01:33:42;;;;;;;14.88;12.68;;;6.90;99.90;;;;;;5101659;28;20570;-75
2022/12/06 01:36:09;;;;;;;13.95;12.10;;;6.90;99.90;;;;;;5100906;28;20306;-75
2022/12/06 01:38:37;;;;;;;16.58;13.23;;;6.80;99.90;;;;;;5106341;28;20697;-75
2022/12/06 01:41:04;;;;;;;19.23;15.75;;;6.80;99.90;;;;;;5107722;28;20237;-75
2022/12/06 01:43:34;;;;;;;13.88;12.48;;;6.80;99.90;;;;;;5122123;28;20223;-78
2022/12/06 01:46:07;;;;;;;13.30;11.95;;;6.80;99.90;;;;;;5117029;28;20219;-77
2022/12/06 01:48:35;;;;;;;14.65;13.13;;;6.80;99.90;;;;;;5119084;28;20231;-77
2022/12/06 01:51:04;;;;;;;13.90;12.40;;;6.70;99.90;;;;;;5115559;28;20218;-77
2022/12/06 01:53:32;;;;;;;14.43;12.80;;;6.80;99.90;;;;;;5103627;28;20683;-77
2022/12/06 01:56:01;;;;;;;14.43;12.15;;;6.80;99.90;;;;;;5115129;28;20250;-76
2022/12/06 01:58:34;;;;;;;14.40;12.70;;;6.70;99.90;;;;;;5109200;28;20253;-75
2022/12/06 02:01:01;;;;;;;13.52;12.23;;;6.70;99.90;;;;;;5107313;28;20675;-79
2022/12/06 02:03:31;;;;;;;12.75;11.43;;;6.70;99.90;;;;;;5108448;28;20272;-76
2022/12/06 02:06:00;;;;;;;16.88;13.77;;;6.70;99.90;;;;;;5113969;28;20226;-77
2022/12/06 02:08:29;;;;;;;17.55;13.18;;;6.70;99.90;;;;;;5114751;28;20254;-76
2022/12/06 02:10:56;;;;;;;14.00;11.57;;;6.70;99.90;;;;;;5084969;28;20243;-76
2022/12/06 02:13:25;;;;;;;12.43;11.15;;;6.70;99.90;;;;;;5114096;28;20305;-76
2022/12/06 02:16:02;;;;;;;11.90;10.65;;;6.70;99.90;;;;;;5113562;28;20253;-76
2022/12/06 02:18:35;;;;;;;11.93;9.68;;;6.70;99.90;;;;;;5116270;28;20224;-78
2022/12/06 02:21:13;;;;;;;17.48;11.68;;;6.70;99.90;;;;;;5116234;28;20225;-78
2022/12/06 02:24:10;;;;;;;16.27;12.85;;;6.70;99.90;;;;;;5116540;28;20624;-78
2022/12/06 02:26:43;;;;;;;14.75;11.52;;;6.60;99.90;;;;;;5113465;28;20221;-76
2022/12/06 02:30:06;;;;;;;13.75;10.32;;;6.60;99.90;;;;;;5115929;28;20305;-78
2022/12/06 02:32:39;;;;;;;12.68;10.25;;;6.60;99.90;;;;;;5115915;28;20629;-76
2022/12/06 02:35:14;;;;;;;11.90;9.63;;;6.60;99.90;;;;;;5115969;28;20283;-77
2022/12/06 02:37:48;;;;;;;12.27;10.90;;;6.60;99.90;;;;;;5114483;28;20218;-77
2022/12/06 02:40:20;;;;;;;10.70;9.60;;;6.60;99.90;;;;;;5115854;28;20225;-77
2022/12/06 02:42:54;;;;;;;12.55;11.35;;;6.60;99.90;;;;;;5115547;28;20226;-75
2022/12/06 02:45:29;;;;;;;19.05;12.73;;;6.60;99.90;;;;;;5115858;28;20226;-77
2022/12/06 02:48:02;;;;;;;14.02;12.32;;;6.60;99.90;;;;;;5115281;28;20214;-77
2022/12/06 02:50:34;;;;;;;15.15;11.82;;;6.60;99.90;;;;;;5115994;28;20573;-78
2022/12/06 02:53:04;;;;;;;15.93;13.45;;;6.60;99.90;;;;;;5115240;28;20218;-77
2022/12/06 02:55:33;;;;;;;16.95;13.63;;;6.60;99.90;;;;;;5115251;28;20223;-77
2022/12/06 02:58:00;;;;;;;14.35;12.45;;;6.60;99.90;;;;;;5115591;28;20318;-77
2022/12/06 03:00:37;;;;;;;17.35;14.57;;;6.70;99.90;;;;;;5115838;28;20315;-79
2022/12/06 03:03:48;;;;;;;16.10;14.50;;;6.70;99.90;;;;;;5114942;28;20218;-77
2022/12/06 03:06:58;;;;;;;20.30;13.38;;;6.60;99.90;;;;;;5095531;28;20555;-78
2022/12/06 03:09:45;;;;;;;18.33;14.65;;;6.60;99.90;;;;;;5105552;28;20234;-76
2022/12/06 03:12:16;;;;;;;15.55;12.73;;;6.60;99.90;;;;;;5114764;28;20551;-79
2022/12/06 03:14:50;;;;;;;15.20;12.50;;;6.60;99.90;;;;;;5089812;28;20247;-76
2022/12/06 03:17:23;;;;;;;17.23;13.50;;;6.60;99.90;;;;;;5112595;28;20218;-76
2022/12/06 03:20:01;;;;;;;19.75;14.55;;;6.60;99.90;;;;;;5115559;28;20231;-78
2022/12/06 03:22:33;;;;;;;18.75;15.70;;;6.60;99.90;;;;;;5114105;28;20218;-76
2022/12/06 03:25:03;;;;;;;18.10;14.68;;;6.60;99.90;;;;;;5115249;28;20215;-76
2022/12/06 03:27:35;;;;;;;18.55;14.30;;;6.60;99.90;;;;;;5115103;28;20327;-79
2022/12/06 03:30:18;;;;;;;21.90;16.92;;;6.70;99.90;;;;;;5115461;28;20233;-78
2022/12/06 03:32:48;;;;;;;19.77;16.05;;;6.60;99.90;;;;;;5115517;28;20222;-77
2022/12/06 03:35:20;;;;;;;18.95;16.48;;;6.60;99.90;;;;;;5093337;28;20219;-76
2022/12/06 03:37:51;;;;;;;16.60;14.45;;;6.50;99.90;;;;;;5111056;28;20226;-79
2022/12/06 03:40:22;;;;;;;16.55;14.80;;;6.50;99.90;;;;;;5114764;28;20582;-79
2022/12/06 03:42:50;;;;;;;17.17;12.32;;;6.50;99.90;;;;;;5115653;28;20242;-79
2022/12/06 03:45:18;;;;;;;14.70;12.82;;;6.50;99.90;;;;;;5114733;28;20242;-79
2022/12/06 03:47:51;;;;;;;12.70;11.50;;;6.50;99.90;;;;;;5115546;28;20564;-79
2022/12/06 03:50:28;;;;;;;13.52;11.98;;;6.50;99.90;;;;;;5114623;28;20246;-77
2022/12/06 03:52:55;;;;;;;14.40;12.02;;;6.50;99.90;;;;;;5115357;28;20785;-76
2022/12/06 03:55:23;;;;;;;10.50;9.10;;;6.50;99.90;;;;;;5115592;28;20689;-79
2022/12/06 03:57:50;;;;;;;12.07;9.23;;;6.50;99.90;;;;;;5117274;28;20668;-76
2022/12/06 04:00:18;;;;;;;9.93;9.00;;;6.50;99.90;;;;;;5115048;28;20283;-77
2022/12/06 04:02:45;;;;;;;10.30;9.18;;;6.40;99.90;;;;;;5116020;28;20238;-76
2022/12/06 04:05:15;;;;;;;11.10;9.27;;;6.40;99.90;;;;;;5118856;28;20245;-79
2022/12/06 04:07:47;;;;;;;10.10;9.20;;;6.40;99.90;;;;;;5120920;28;20309;-76
2022/12/06 04:10:14;;;;;;;9.85;8.88;;;6.50;99.90;;;;;;5120077;28;20294;-76
2022/12/06 04:15:27;;;;;;;10.75;9.75;;;6.40;99.90;;;;;;5122437;28;20290;-77
2022/12/06 04:18:14;;;;;;;10.68;9.10;;;6.40;99.90;;;;;;5127400;28;20230;-78
2022/12/06 04:23:31;;;;;;;10.13;9.13;;;6.40;99.90;;;;;;5125391;28;20228;-76
2022/12/06 04:25:58;;;;;;;13.65;9.38;;;6.40;99.90;;;;;;5112519;28;20256;-79
2022/12/06 04:39:26;;;;;;;11.45;10.30;;;6.40;99.90;;;;;;5113934;28;20605;-78
2022/12/06 04:44:38;;;;;;;10.35;9.25;;;6.40;99.90;;;;;;5112852;28;20651;-76
2022/12/06 04:47:05;;;;;;;10.52;8.50;;;6.40;99.90;;;;;;5113083;28;20222;-76
2022/12/06 04:49:40;;;;;;;8.35;7.55;;;6.40;99.90;;;;;;5112447;28;20242;-75
2022/12/06 04:52:09;;;;;;;8.00;7.28;;;6.40;99.90;;;;;;5113508;28;20301;-75
2022/12/06 04:54:38;;;;;;;8.55;7.72;;;6.40;99.90;;;;;;5113351;28;20230;-76
2022/12/06 04:57:09;;;;;;;8.48;7.63;;;6.30;99.90;;;;;;5112917;28;20226;-75
2022/12/06 04:59:37;;;;;;;10.43;8.38;;;6.30;99.90;;;;;;5091632;28;20313;-75
2022/12/06 05:02:05;;;;;;;8.65;7.85;;;6.30;99.90;;;;;;5105390;28;20560;-75
2022/12/06 05:04:32;;;;;;;8.10;7.00;;;6.30;99.90;;;;;;5113742;28;20241;-77
2022/12/06 05:06:59;;;;;;;9.27;8.27;;;6.30;99.90;;;;;;5113041;28;20225;-78
2022/12/06 05:09:29;;;;;;;8.43;7.28;;;6.30;99.90;;;;;;5113187;28;20219;-78
2022/12/06 05:11:58;;;;;;;8.70;7.32;;;6.30;99.90;;;;;;5104717;28;20218;-78
2022/12/06 05:14:25;;;;;;;10.30;8.15;;;6.30;99.90;;;;;;5113771;28;20250;-78
2022/12/06 05:16:52;;;;;;;9.57;8.43;;;6.30;99.90;;;;;;5112287;28;20223;-76
2022/12/06 05:19:24;;;;;;;10.80;8.88;;;6.20;99.90;;;;;;5097168;28;20223;-78
2022/12/06 05:21:59;;;;;;;8.90;8.00;;;6.30;99.90;;;;;;5105931;28;20219;-76
2022/12/06 05:24:32;;;;;;;9.38;8.48;;;6.20;99.90;;;;;;5116595;28;20296;-76
2022/12/06 05:27:07;;;;;;;11.73;9.15;;;6.20;99.90;;;;;;5115916;28;20244;-78
2022/12/06 05:29:41;;;;;;;9.75;8.30;;;6.20;99.90;;;;;;5116541;28;20603;-76
2022/12/06 05:32:23;;;;;;;8.65;7.75;;;6.20;99.90;;;;;;5116506;28;20215;-76
2022/12/06 05:34:54;;;;;;;9.40;8.10;;;6.20;99.90;;;;;;5115851;28;20250;-76
2022/12/06 05:37:22;;;;;;;9.07;7.50;;;6.20;99.90;;;;;;5116095;28;20253;-76
2022/12/06 05:39:49;;;;;;;8.07;7.28;;;6.20;99.90;;;;;;5115563;28;20695;-76
2022/12/06 05:42:18;;;;;;;7.75;7.07;;;6.20;99.90;;;;;;5116343;28;20219;-76
2022/12/06 05:44:45;;;;;;;9.23;8.32;;;6.20;99.90;;;;;;5115652;28;20243;-77
2022/12/06 05:47:12;;;;;;;8.23;7.15;;;6.20;99.90;;;;;;5116513;28;20242;-76
2022/12/06 05:49:58;;;;;;;8.60;7.30;;;6.20;99.90;;;;;;5116438;28;20300;-78
2022/12/06 05:52:26;;;;;;;8.38;7.53;;;6.20;99.90;;;;;;5117182;28;20241;-76
2022/12/06 05:54:53;;;;;;;9.80;8.18;;;6.20;99.90;;;;;;5116428;28;20622;-75
2022/12/06 05:57:22;;;;;;;6.57;5.97;;;6.20;99.90;;;;;;5116517;28;20311;-75
2022/12/06 05:59:49;;;;;;;9.93;8.90;;;6.20;99.90;;;;;;5115516;28;20544;-76
2022/12/06 06:02:16;;;;;;;8.18;7.25;;;6.20;99.90;;;;;;5116073;28;20223;-75
2022/12/06 06:04:43;;;;;;;8.05;7.20;;;6.10;99.90;;;;;;5115878;28;20601;-75
2022/12/06 06:07:10;;;;;;;8.02;7.22;;;6.20;99.90;;;;;;5115640;28;20301;-75
2022/12/06 06:09:36;;;;;;;9.02;8.15;;;6.20;99.90;;;;;;5115184;28;20279;-75
2022/12/06 06:12:04;;;;;;;7.05;6.35;;;6.20;99.90;;;;;;5115946;28;20568;-77
2022/12/06 06:14:32;;;;;;;7.35;6.63;;;6.30;99.90;;;;;;5115906;28;20219;-77
2022/12/06 06:16:59;;;;;;;7.85;7.15;;;6.20;99.90;;;;;;5116326;28;20761;-78
2022/12/06 06:19:27;;;;;;;7.93;7.22;;;6.30;99.90;;;;;;5116507;28;20559;-77
2022/12/06 06:21:57;;;;;;;8.68;7.82;;;6.30;99.90;;;;;;5115891;28;20218;-78
2022/12/06 06:24:24;;;;;;;8.63;7.72;;;6.30;99.90;;;;;;5116273;28;20595;-78
2022/12/06 06:26:50;;;;;;;9.40;8.48;;;6.30;99.90;;;;;;5116348;28;20226;-78
2022/12/06 06:29:17;;;;;;;10.15;8.00;;;6.30;99.90;;;;;;5116570;28;20683;-78
2022/12/06 06:31:46;;;;;;;7.63;6.80;;;6.20;99.90;;;;;;5115544;28;20295;-78
2022/12/06 06:34:13;;;;;;;10.82;8.30;;;6.20;99.90;;;;;;5121066;28;20275;-78
2022/12/06 06:36:40;;;;;;;7.60;6.90;;;6.20;99.90;;;;;;5115852;28;20682;-78
2022/12/06 06:39:07;;;;;;;8.35;7.55;;;6.20;99.90;;;;;;5116027;28;20237;-77
2022/12/06 06:41:34;;;;;;;8.25;7.45;;;6.20;99.90;;;;;;5115127;28;20226;-77
2022/12/06 06:44:01;;;;;;;8.68;7.55;;;6.20;99.90;;;;;;5116042;28;20219;-77
2022/12/06 06:46:28;;;;;;;8.50;7.18;;;6.20;99.90;;;;;;5115990;28;20688;-77
2022/12/06 06:48:56;;;;;;;7.90;7.10;;;6.20;99.90;;;;;;5115357;28;20645;-78
2022/12/06 06:51:23;;;;;;;8.93;7.57;;;6.30;99.90;;;;;;5115838;28;20298;-77
2022/12/06 06:53:50;;;;;;;9.80;7.85;;;6.20;99.90;;;;;;5115501;28;20230;-77
2022/12/06 06:56:17;;;;;;;11.60;8.73;;;6.20;99.90;;;;;;5115610;28;20222;-77
2022/12/06 06:58:44;;;;;;;10.13;8.02;;;6.20;99.90;;;;;;5115156;28;20594;-76
2022/12/06 07:01:18;;;;;;;10.88;8.13;;;6.20;99.90;;;;;;5115143;28;20568;-75
2022/12/06 07:03:45;;;;;;;12.38;8.80;;;6.20;99.90;;;;;;5114469;28;20279;-78
2022/12/06 07:06:14;;;;;;;8.00;7.20;;;6.20;99.90;;;;;;5115730;28;20218;-78
2022/12/06 07:08:42;;;;;;;11.35;8.98;;;6.20;99.90;;;;;;5115643;28;20219;-75
2022/12/06 07:11:09;;;;;;;11.63;9.75;;;6.20;99.90;;;;;;5115430;28;20310;-77
2022/12/06 07:13:41;;;;;;;10.90;9.52;;;6.20;99.90;;;;;;5115845;28;20267;-78
2022/12/06 07:16:14;;;;;;;12.05;9.55;;;6.20;99.90;;;;;;5116393;28;20530;-78
2022/12/06 07:18:46;;;;;;;11.32;9.65;;;6.30;99.90;;;;;;5114828;28;20222;-77
2022/12/06 07:21:22;;;;;;;16.05;11.23;;;6.20;99.90;;;;;;5114497;28;20574;-77
2022/12/06 07:23:53;;;;;;;12.07;10.43;;;6.20;99.90;;;;;;5115088;28;20242;-77
2022/12/06 07:26:22;;;;;;;11.30;10.10;;;6.30;99.90;;;;;;5117222;28;20541;-77
2022/12/06 07:28:50;;;;;;;10.13;8.88;;;6.20;99.90;;;;;;5118077;28;20227;-77
2022/12/06 07:31:20;;;;;;;10.63;9.52;;;6.30;99.90;;;;;;5116295;28;20543;-75
2022/12/06 07:33:48;;;;;;;9.30;7.88;;;6.30;99.90;;;;;;5114061;28;20342;-75
2022/12/06 07:36:16;;;;;;;8.15;7.35;;;6.30;99.90;;;;;;5116465;28;20234;-77
2022/12/06 07:38:47;;;;;;;8.65;7.75;;;6.30;99.90;;;;;;5118841;28;20230;-78
2022/12/06 07:46:45;;;;;;;6.60;6.00;;;6.40;99.90;;;;;;5120630;28;20268;-78
2022/12/06 07:49:14;;;;;;;7.80;6.90;;;6.40;99.90;;;;;;5120808;28;20287;-77
2022/12/06 07:51:48;;;;;;;7.97;6.90;;;6.30;99.90;;;;;;5118843;28;20222;-75
2022/12/06 07:54:16;;;;;;;8.40;7.53;;;6.40;99.90;;;;;;5115184;28;20218;-75
2022/12/06 07:56:44;;;;;;;9.27;8.23;;;6.40;99.90;;;;;;5113684;28;20756;-75
2022/12/06 07:59:12;;;;;;;8.70;7.35;;;6.40;99.90;;;;;;5115208;28;20226;-75
2022/12/06 08:01:39;;;;;;;13.82;12.43;;;6.40;99.90;;;;;;5114522;28;20227;-76
2022/12/06 08:04:06;;;;;;;12.10;10.80;;;6.40;99.90;;;;;;5114655;28;20219;-75
2022/12/06 08:06:34;;;;;;;10.30;9.30;;;6.40;99.90;;;;;;5115720;28;20226;-75
2022/12/06 08:09:03;;;;;;;9.57;8.50;;;6.40;99.90;;;;;;5114508;28;20715;-75
2022/12/06 08:11:30;;;;;;;10.65;8.55;;;6.40;99.90;;;;;;5115686;28;20231;-76
2022/12/06 08:13:57;;;;;;;9.88;8.18;;;6.40;99.90;;;;;;5114961;28;20235;-76
2022/12/06 08:16:24;;;;;;;9.20;8.30;;;6.40;99.90;;;;;;5118850;28;20238;-78
2022/12/06 08:18:51;;;;;;;10.23;7.85;;;6.40;99.90;;;;;;5132381;28;20219;-77
2022/12/06 08:21:18;;;;;;;8.50;7.70;;;6.40;99.90;;;;;;5132952;28;20219;-78
2022/12/06 08:23:45;;;;;;;9.13;7.82;;;6.40;99.90;;;;;;5132369;28;20223;-77
2022/12/06 08:26:18;;;;;;;10.00;8.48;;;6.40;99.90;;;;;;5133562;28;20215;-80
2022/12/06 08:28:46;;;;;;;9.00;8.10;;;6.40;99.90;;;;;;5133402;28;20230;-78
2022/12/06 08:31:15;;;;;;;7.75;6.95;;;6.40;99.90;;;;;;5132830;28;20267;-78
2022/12/06 08:33:42;;;;;;;9.05;8.15;;;6.40;99.90;;;;;;5133040;28;20253;-79
2022/12/06 08:36:11;;;;;;;9.73;8.73;;;6.40;99.90;;;;;;5107759;28;20223;-77
2022/12/06 08:38:39;;;;;;;10.60;9.25;;;6.40;99.90;;;;;;5126168;28;20298;-79
2022/12/06 08:41:54;;;;;;;8.20;6.95;;;6.40;99.90;;;;;;5128955;28;20279;-78
2022/12/06 08:43:57;;;;;;;8.30;7.50;;;6.40;99.90;;;;;;5116420;28;20299;-78
2022/12/06 08:46:25;;;;;;;7.70;6.95;;;6.40;99.90;;;;;;5116740;28;20226;-78
2022/12/06 08:48:53;;;;;;;9.70;8.55;;;6.40;99.90;;;;;;5115091;28;20230;-79
2022/12/06 08:51:20;;;;;;;12.18;7.05;;;6.40;99.90;;;;;;5115418;28;20226;-78
2022/12/06 08:53:49;;;;;;;8.88;7.00;;;6.40;99.90;;;;;;5118258;28;20226;-78
2022/12/06 08:56:16;;;;;;;12.90;7.65;;;6.40;99.90;;;;;;5121738;28;20370;-78
2022/12/06 08:58:43;;;;;;;9.05;6.40;;;6.40;99.90;;;;;;5121980;28;20226;-79
2022/12/06 09:01:14;;;;;;;11.48;7.57;;;6.40;99.90;;;;;;5121141;28;20226;-77
2022/12/06 09:03:41;;;;;;;8.75;7.40;;;6.40;99.90;;;;;;5121624;28;20222;-77
2022/12/06 09:06:11;;;;;;;10.40;7.40;;;6.40;99.90;;;;;;5120646;28;20238;-77
2022/12/06 09:08:38;;;;;;;10.80;7.57;;;6.40;99.90;;;;;;5121010;28;20597;-79
2022/12/06 09:11:07;;;;;;;9.68;7.65;;;6.40;99.90;;;;;;5120400;28;20222;-76
2022/12/06 09:13:35;;;;;;;11.90;8.05;;;6.40;99.90;;;;;;5121504;28;20233;-77
2022/12/06 09:16:06;;;;;;;9.00;7.90;;;6.40;99.90;;;;;;5120436;28;20246;-78
2022/12/06 09:18:35;;;;;;;12.60;8.25;;;6.40;99.90;;;;;;5120836;28;20689;-79
2022/12/06 09:21:05;;;;;;;7.95;7.13;;;6.40;99.90;;;;;;5119556;28;20218;-78
2022/12/06 09:23:32;;;;;;;11.77;8.80;;;6.50;99.90;;;;;;5120512;28;20499;-79
2022/12/06 09:26:05;;;;;;;12.02;9.45;;;6.40;99.90;;;;;;5120368;28;20540;-78
2022/12/06 09:28:35;;;;;;;9.90;7.78;;;6.50;99.90;;;;;;5120873;28;20233;-79
2022/12/06 09:31:03;;;;;;;11.07;8.07;;;6.50;99.90;;;;;;5120338;28;20257;-79
2022/12/06 09:33:30;;;;;;;10.45;7.03;;;6.60;99.90;;;;;;5120542;28;20222;-78
2022/12/06 09:36:01;;;;;;;10.95;9.10;;;6.50;99.90;;;;;;5120028;28;20218;-77
2022/12/06 09:38:30;;;;;;;9.05;7.90;;;6.60;99.90;;;;;;5120286;28;20555;-78
2022/12/06 09:41:11;;;;;;;10.52;8.38;;;6.60;99.90;;;;;;5119568;28;20317;-77
2022/12/06 09:43:53;;;;;;;8.73;6.47;;;6.60;99.90;;;;;;5121022;28;20598;-79
2022/12/06 09:46:39;;;;;;;8.57;6.28;;;6.60;99.90;;;;;;5120487;28;20275;-79
2022/12/06 09:49:22;;;;;;;7.40;6.70;;;6.60;99.90;;;;;;5120530;28;20234;-78
2022/12/06 09:52:21;;;;;;;6.53;5.90;;;6.60;99.90;;;;;;5120760;28;20227;-78
2022/12/06 09:55:03;;;;;;;9.75;8.15;;;6.60;99.90;;;;;;5120695;28;20220;-78
2022/12/06 09:57:38;;;;;;;9.45;7.90;;;6.60;99.90;;;;;;5120070;28;20635;-78
2022/12/06 10:00:08;;;;;;;9.27;6.43;;;6.60;99.90;;;;;;5119897;28;21117;-79
2022/12/06 10:02:57;;;;;;;7.28;6.20;;;6.60;99.90;;;;;;5119812;28;20305;-78
2022/12/06 10:05:35;;;;;;;6.90;5.80;;;6.60;99.90;;;;;;5117402;28;20219;-78
2022/12/06 10:08:20;;;;;;;8.63;6.80;;;6.60;99.90;;;;;;5116642;28;20680;-78
2022/12/06 10:10:58;;;;;;;13.05;9.88;;;6.70;99.90;;;;;;5116321;28;20215;-79
2022/12/06 10:13:37;;;;;;;14.95;12.32;;;6.70;99.90;;;;;;5116238;28;20277;-78
2022/12/06 10:16:12;;;;;;;11.80;10.05;;;6.60;99.90;;;;;;5111992;28;20861;-79
2022/12/06 10:18:50;;;;;;;13.75;11.35;;;6.60;99.90;;;;;;5112366;28;20230;-79
2022/12/06 10:21:26;;;;;;;11.07;8.32;;;6.60;99.90;;;;;;5115309;28;20240;-78
2022/12/06 10:24:06;;;;;;;12.05;8.90;;;6.60;99.90;;;;;;5116212;28;20222;-78
2022/12/06 10:26:41;;;;;;;7.03;6.40;;;6.60;99.90;;;;;;5095369;28;20661;-79
2022/12/06 10:29:19;;;;;;;7.82;7.00;;;6.60;99.90;;;;;;5095995;28;20234;-78
2022/12/06 10:31:56;;;;;;;7.57;6.38;;;6.60;99.90;;;;;;5094451;28;20219;-76
2022/12/06 10:34:35;;;;;;;7.80;6.93;;;6.60;99.90;;;;;;5109818;28;20295;-75
2022/12/06 10:37:12;;;;;;;7.13;6.20;;;6.60;99.90;;;;;;5115543;28;20211;-75
2022/12/06 10:39:48;;;;;;;8.38;7.18;;;6.50;99.90;;;;;;5115551;28;20310;-79
2022/12/06 10:42:29;;;;;;;7.78;6.97;;;6.50;99.90;;;;;;5116285;28;20248;-78
2022/12/06 10:44:59;;;;;;;8.25;7.45;;;6.50;99.90;;;;;;5115527;28;20223;-77
2022/12/06 10:47:43;;;;;;;7.28;6.57;;;6.50;99.90;;;;;;5115888;28;20222;-74
2022/12/06 10:50:21;;;;;;;7.78;6.82;;;6.50;99.90;;;;;;5114468;28;20219;-79
2022/12/06 10:52:51;;;;;;;8.57;6.82;;;6.50;99.90;;;;;;5114961;28;20231;-77
2022/12/06 10:55:28;;;;;;;7.38;6.65;;;6.50;99.90;;;;;;5115378;28;20298;-76
2022/12/06 10:58:05;;;;;;;7.75;7.00;;;6.50;99.90;;;;;;5114700;28;20318;-77
2022/12/06 11:00:38;;;;;;;9.40;6.15;;;6.50;99.90;;;;;;5115550;28;20598;-75
2022/12/06 11:03:14;;;;;;;7.93;6.78;;;6.50;99.90;;;;;;5116516;28;20219;-79
2022/12/06 11:05:48;;;;;;;8.55;7.75;;;6.50;99.90;;;;;;5116746;28;20279;-77
2022/12/06 11:08:20;;;;;;;8.93;8.00;;;6.50;99.90;;;;;;5116616;28;20246;-77
2022/12/06 11:10:49;;;;;;;10.00;9.07;;;6.50;99.90;;;;;;5115503;28;20219;-78
2022/12/06 11:13:21;;;;;;;10.40;9.40;;;6.50;99.90;;;;;;5115605;28;20313;-78
2022/12/06 11:15:53;;;;;;;9.90;8.43;;;6.50;99.90;;;;;;5106523;28;20661;-77
2022/12/06 11:18:21;;;;;;;8.88;7.97;;;6.50;99.90;;;;;;5096008;28;20231;-78
2022/12/06 11:20:57;;;;;;;9.27;7.78;;;6.50;99.90;;;;;;5095620;28;20223;-77
2022/12/06 11:23:32;;;;;;;11.98;7.97;;;6.50;99.90;;;;;;5095692;28;20644;-78
2022/12/06 11:26:06;;;;;;;8.32;7.50;;;6.50;99.90;;;;;;5095979;28;20223;-79
2022/12/06 11:28:40;;;;;;;9.63;8.80;;;6.60;99.90;;;;;;5095708;28;20292;-76
2022/12/06 11:31:24;;;;;;;8.52;7.47;;;6.60;99.90;;;;;;5093063;28;20297;-76
2022/12/06 11:33:51;;;;;;;10.27;7.75;;;6.60;99.90;;;;;;5093970;28;20257;-75
2022/12/06 11:36:20;;;;;;;7.88;6.80;;;6.60;99.90;;;;;;5094054;28;20227;-76
2022/12/06 11:38:52;;;;;;;10.02;7.93;;;6.70;99.90;;;;;;5095260;28;20310;-77
2022/12/06 11:41:23;;;;;;;9.18;8.27;;;6.70;99.90;;;;;;5094838;28;20219;-78
2022/12/06 11:43:52;;;;;;;7.72;6.97;;;6.70;99.90;;;;;;5093574;28;20288;-76
2022/12/06 11:46:20;;;;;;;9.20;7.53;;;6.70;99.90;;;;;;5093653;28;20223;-76
2022/12/06 11:48:48;;;;;;;6.80;6.00;;;6.80;99.90;;;;;;5093325;28;20238;-76
2022/12/06 11:51:19;;;;;;;10.93;9.27;;;6.80;99.90;;;;;;5094201;28;20227;-76
2022/12/06 11:53:56;;;;;;;8.85;7.35;;;6.80;99.90;;;;;;5092460;28;20266;-78
2022/12/06 11:56:27;;;;;;;11.93;10.68;;;6.80;99.90;;;;;;5094105;28;20721;-75
2022/12/06 11:59:05;;;;;;;10.02;7.80;;;6.80;99.90;;;;;;5093294;28;20597;-76
2022/12/06 12:01:41;;;;;;;6.55;5.95;;;6.80;99.90;;;;;;5093955;28;20219;-76
2022/12/06 12:04:25;;;;;;;8.35;6.93;;;6.80;99.90;;;;;;5093460;28;20222;-76
2022/12/06 12:06:56;;;;;;;8.10;6.40;;;6.80;99.90;;;;;;5091496;28;20238;-79
2022/12/06 12:09:26;;;;;;;6.72;6.22;;;6.80;99.90;;;;;;5118058;27;20264;-75
2022/12/06 12:12:03;;;;;;;11.18;7.35;;;6.80;99.90;;;;;;5112461;28;20679;-77
2022/12/06 12:14:41;;;;;;;6.43;5.82;;;6.80;99.90;;;;;;5101085;28;20218;-76
2022/12/06 12:17:17;;;;;;;7.85;6.32;;;6.80;99.90;;;;;;5106788;28;20558;-76
2022/12/06 12:19:49;;;;;;;7.00;6.40;;;6.80;99.90;;;;;;5104027;28;20610;-76
2022/12/06 12:22:24;;;;;;;6.57;6.03;;;6.80;99.90;;;;;;5108590;28;20234;-76
2022/12/06 12:24:56;;;;;;;5.63;5.13;;;6.70;99.90;;;;;;5110937;27;20370;-75
2022/12/06 12:27:43;;;;;;;5.47;5.03;;;6.80;99.90;;;;;;5106595;28;20641;-74
2022/12/06 12:30:29;;;;;;;6.10;5.55;;;6.80;99.90;;;;;;5108161;28;20235;-76
2022/12/06 12:33:15;;;;;;;5.40;4.93;;;6.80;99.90;;;;;;5101205;28;20226;-77
2022/12/06 12:35:44;;;;;;;6.50;6.00;;;6.70;99.90;;;;;;5099671;28;20230;-76
2022/12/06 12:38:27;;;;;;;5.47;4.97;;;6.70;99.90;;;;;;5098500;28;20310;-76
2022/12/06 12:40:56;;;;;;;4.28;3.88;;;6.70;99.90;;;;;;5118817;27;20294;-76
2022/12/06 12:43:27;;;;;;;4.30;3.90;;;6.70;99.90;;;;;;5116045;28;20244;-76
2022/12/06 12:46:15;;;;;;;4.80;4.40;;;6.70;99.90;;;;;;5101619;28;20223;-75
2022/12/06 12:48:44;;;;;;;4.70;4.18;;;6.70;99.90;;;;;;5103860;28;20306;-76
2022/12/06 12:51:35;;;;;;;5.20;4.80;;;6.70;99.90;;;;;;5098557;28;20215;-76
2022/12/06 12:54:04;;;;;;;4.80;4.40;;;6.80;99.90;;;;;;5092471;28;20645;-76
2022/12/06 12:56:36;;;;;;;5.45;4.95;;;6.70;99.90;;;;;;5096821;28;20222;-76
2022/12/06 12:59:13;;;;;;;8.45;6.00;;;6.80;99.90;;;;;;5100353;28;20238;-77
2022/12/06 13:01:46;;;;;;;7.40;6.60;;;6.70;99.90;;;;;;5106147;28;20272;-75
2022/12/06 13:04:20;;;;;;;5.72;5.13;;;6.80;99.90;;;;;;5105695;28;20347;-76
2022/12/06 13:06:51;;;;;;;5.15;4.63;;;6.80;99.90;;;;;;5111078;28;20222;-76
2022/12/06 13:09:29;;;;;;;5.53;5.00;;;6.70;99.90;;;;;;5098084;28;20230;-76
2022/12/06 13:12:01;;;;;;;5.57;4.65;;;6.80;99.90;;;;;;5103288;28;20227;-76
2022/12/06 13:14:32;;;;;;;6.03;5.53;;;6.70;99.90;;;;;;5107820;28;20244;-76
2022/12/06 13:17:05;;;;;;;8.70;7.20;;;6.80;99.90;;;;;;5100899;28;20256;-77
2022/12/06 13:19:39;;;;;;;8.48;7.35;;;6.70;99.90;;;;;;5098423;28;20626;-76
2022/12/06 13:22:18;;;;;;;6.45;5.85;;;6.80;99.90;;;;;;5100219;28;20226;-76
2022/12/06 13:25:00;;;;;;;6.20;5.47;;;6.80;99.90;;;;;;5099001;28;20223;-76
2022/12/06 13:27:32;;;;;;;5.28;4.60;;;6.70;99.90;;;;;;5088777;28;20234;-76
2022/12/06 13:30:04;;;;;;;5.07;4.63;;;6.70;99.90;;;;;;5102199;28;20224;-76
2022/12/06 13:32:38;;;;;;;5.93;5.43;;;6.80;99.90;;;;;;5108932;28;20237;-76
2022/12/06 13:35:16;;;;;;;5.50;5.00;;;6.70;99.90;;;;;;5100808;28;20280;-76
2022/12/06 13:37:46;;;;;;;6.57;5.97;;;6.70;99.90;;;;;;5112003;28;20549;-76